Time;durP1;ratioP1;P1;durP2;ratioP2;P2;SDS_P1;SDS_P2;PMS_P1;PMS_P2;Temp;Humidity;BMP_temperature;BMP_pressure;BME280_temperature;BME280_humidity;BME280_pressure;Samples;Min_cycle;Max_cycle;Signal;HPM_P1;HPM_P2
2021/03/04 00:02:02;;;;;;;3.00;1.35;;;11.60;67.10;;;;;;5053803;28;20055;-88
2021/03/04 00:04:29;;;;;;;7.47;2.50;;;11.60;67.10;;;;;;5062688;28;20041;-87
2021/03/04 00:06:55;;;;;;;1.65;0.68;;;11.50;67.10;;;;;;5063136;28;20426;-85
2021/03/04 00:09:21;;;;;;;2.92;1.10;;;11.50;67.20;;;;;;5066130;28;20032;-87
2021/03/04 00:11:47;;;;;;;3.15;1.50;;;11.50;67.20;;;;;;5057024;28;20378;-87
2021/03/04 00:14:13;;;;;;;4.38;1.70;;;11.50;67.30;;;;;;5054877;28;20044;-87
2021/03/04 00:16:39;;;;;;;6.35;2.42;;;11.50;67.40;;;;;;5051894;28;20501;-85
2021/03/04 00:19:05;;;;;;;5.53;2.00;;;11.40;67.40;;;;;;5055809;28;20036;-88
2021/03/04 00:21:31;;;;;;;3.33;1.48;;;11.40;67.50;;;;;;5053342;28;20044;-87
2021/03/04 00:23:57;;;;;;;16.98;3.70;;;11.40;67.50;;;;;;5033770;28;20049;-84
2021/03/04 00:26:23;;;;;;;8.00;2.80;;;11.40;67.50;;;;;;5052032;28;20056;-87
2021/03/04 00:28:49;;;;;;;2.70;1.25;;;11.30;67.50;;;;;;5060714;28;20025;-87
2021/03/04 00:31:15;;;;;;;3.28;1.77;;;11.30;67.60;;;;;;5060819;28;20033;-87
2021/03/04 00:33:42;;;;;;;5.20;1.83;;;11.30;67.70;;;;;;5056319;28;20025;-87
2021/03/04 00:36:08;;;;;;;3.63;1.08;;;11.30;67.80;;;;;;5050419;28;20052;-88
2021/03/04 00:38:34;;;;;;;1.23;0.55;;;11.30;67.70;;;;;;5056056;28;20025;-86
2021/03/04 00:41:00;;;;;;;5.80;0.98;;;11.30;67.70;;;;;;5055258;28;20107;-87
2021/03/04 00:43:26;;;;;;;0.73;0.38;;;11.40;67.80;;;;;;5055379;28;20028;-87
2021/03/04 00:45:53;;;;;;;2.35;1.05;;;11.40;67.70;;;;;;5057654;28;20033;-87
2021/03/04 00:48:19;;;;;;;3.28;0.95;;;11.40;67.70;;;;;;5061223;28;20029;-86
2021/03/04 00:50:45;;;;;;;2.72;0.85;;;11.40;67.70;;;;;;5054319;28;20052;-86
2021/03/04 00:53:11;;;;;;;3.00;1.33;;;11.50;67.70;;;;;;5051568;28;20040;-87
2021/03/04 00:55:38;;;;;;;1.40;0.70;;;11.50;67.70;;;;;;5064259;28;20067;-87
2021/03/04 00:58:04;;;;;;;6.45;1.42;;;11.50;67.70;;;;;;5062119;28;20036;-86
2021/03/04 01:00:30;;;;;;;1.92;0.75;;;11.50;67.70;;;;;;5061381;28;20040;-88
2021/03/04 01:02:56;;;;;;;4.13;1.40;;;11.60;67.80;;;;;;5053463;28;20492;-87
2021/03/04 01:05:23;;;;;;;2.40;0.77;;;11.60;67.80;;;;;;5063481;28;20035;-87
2021/03/04 01:07:49;;;;;;;2.70;1.38;;;11.60;67.80;;;;;;5055220;28;20025;-87
2021/03/04 01:10:17;;;;;;;3.92;1.00;;;11.60;67.80;;;;;;5053702;28;20028;-85
2021/03/04 01:12:43;;;;;;;1.20;0.50;;;11.60;67.90;;;;;;5053435;28;20032;-86
2021/03/04 01:15:14;;;;;;;9.73;1.13;;;11.70;68.10;;;;;;5052290;28;20041;-86
2021/03/04 01:17:40;;;;;;;2.42;0.90;;;11.70;68.20;;;;;;5057740;28;20021;-87
2021/03/04 01:20:08;;;;;;;1.02;0.43;;;11.70;68.30;;;;;;5056428;28;20052;-87
2021/03/04 01:22:34;;;;;;;1.85;0.50;;;11.70;68.30;;;;;;5060156;28;20029;-87
2021/03/04 01:25:00;;;;;;;4.13;1.13;;;11.70;68.30;;;;;;5058511;28;20477;-86
2021/03/04 01:27:26;;;;;;;2.17;0.75;;;11.70;68.50;;;;;;5063847;28;20028;-86
2021/03/04 01:29:52;;;;;;;0.80;0.32;;;11.60;68.60;;;;;;5054543;28;20377;-87
2021/03/04 01:32:18;;;;;;;1.40;0.65;;;11.60;68.80;;;;;;5038726;28;20029;-85
2021/03/04 01:34:44;;;;;;;2.25;0.70;;;11.50;68.80;;;;;;5050402;28;20390;-87
2021/03/04 01:37:10;;;;;;;1.58;0.65;;;11.50;68.90;;;;;;5055525;28;20028;-87
2021/03/04 01:39:36;;;;;;;3.47;0.85;;;11.40;69.00;;;;;;5050974;28;20399;-86
2021/03/04 01:42:03;;;;;;;0.50;0.32;;;11.40;69.10;;;;;;5054345;28;20037;-88
2021/03/04 01:44:29;;;;;;;8.63;0.30;;;11.40;69.20;;;;;;5034500;28;20034;-87
2021/03/04 01:46:55;;;;;;;2.33;0.40;;;11.40;69.10;;;;;;5062111;28;20382;-87
2021/03/04 01:49:21;;;;;;;1.75;0.50;;;11.50;69.20;;;;;;5064490;28;20445;-86
2021/03/04 01:51:47;;;;;;;2.15;0.95;;;11.50;69.20;;;;;;5066130;28;20029;-87
2021/03/04 01:54:15;;;;;;;0.88;0.20;;;11.50;69.20;;;;;;5054569;28;20040;-87
2021/03/04 01:56:41;;;;;;;1.25;0.40;;;11.50;69.30;;;;;;5017963;28;20085;-87
2021/03/04 01:59:07;;;;;;;2.33;0.32;;;11.50;69.40;;;;;;5062547;28;20029;-86
2021/03/04 02:01:33;;;;;;;1.20;0.60;;;11.50;69.40;;;;;;5059104;28;20409;-87
2021/03/04 02:03:59;;;;;;;2.83;0.63;;;11.50;69.40;;;;;;5049903;28;20043;-87
2021/03/04 02:06:30;;;;;;;1.35;0.40;;;11.50;69.40;;;;;;5046353;28;20026;-87
2021/03/04 02:08:59;;;;;;;2.08;0.75;;;11.50;69.40;;;;;;5064476;28;20077;-87
2021/03/04 02:11:28;;;;;;;0.60;0.28;;;11.60;69.50;;;;;;5050427;28;20025;-87
2021/03/04 02:14:06;;;;;;;3.45;0.77;;;11.60;69.50;;;;;;5057766;28;20037;-87
2021/03/04 02:16:43;;;;;;;3.63;1.10;;;11.60;69.50;;;;;;5058248;28;20048;-87
2021/03/04 02:19:40;;;;;;;3.08;0.93;;;11.60;69.50;;;;;;5046193;28;20033;-87
2021/03/04 02:22:24;;;;;;;1.75;0.70;;;11.60;69.50;;;;;;5046609;28;20373;-87
2021/03/04 02:25:18;;;;;;;7.18;0.82;;;11.60;69.50;;;;;;5065659;28;20020;-87
2021/03/04 02:27:44;;;;;;;2.05;0.63;;;11.70;69.60;;;;;;5051964;28;20501;-87
2021/03/04 02:30:15;;;;;;;2.90;0.85;;;11.70;69.50;;;;;;5050228;28;20036;-87
2021/03/04 02:32:52;;;;;;;1.08;0.60;;;11.70;69.50;;;;;;5034916;28;20470;-83
2021/03/04 02:35:25;;;;;;;3.10;1.20;;;11.70;69.60;;;;;;5036109;28;20052;-86
2021/03/04 02:38:08;;;;;;;3.75;0.75;;;11.80;69.60;;;;;;5043734;28;20037;-87
2021/03/04 02:40:34;;;;;;;4.07;1.08;;;11.80;69.70;;;;;;5057473;28;20031;-85
2021/03/04 02:43:03;;;;;;;5.47;0.52;;;11.80;69.60;;;;;;5060115;28;20040;-86
2021/03/04 02:45:29;;;;;;;1.45;0.40;;;11.80;69.70;;;;;;5050834;28;20025;-86
2021/03/04 02:47:55;;;;;;;2.15;0.75;;;11.70;69.70;;;;;;5037286;28;20053;-87
2021/03/04 02:50:22;;;;;;;0.88;0.40;;;11.70;69.80;;;;;;5067411;28;20028;-86
2021/03/04 02:52:48;;;;;;;4.18;0.65;;;11.70;69.90;;;;;;5046935;28;20115;-86
2021/03/04 02:55:14;;;;;;;3.33;0.77;;;11.70;70.10;;;;;;5053237;28;20040;-86
2021/03/04 02:57:41;;;;;;;1.60;0.95;;;11.60;70.10;;;;;;5058133;28;20032;-87
2021/03/04 03:00:09;;;;;;;2.72;0.90;;;11.60;70.20;;;;;;5052706;28;20385;-84
2021/03/04 03:02:36;;;;;;;3.42;1.00;;;11.60;70.20;;;;;;5036928;28;20032;-85
2021/03/04 03:05:04;;;;;;;2.28;0.73;;;11.60;70.20;;;;;;5045567;28;20393;-86
2021/03/04 03:07:30;;;;;;;1.85;0.50;;;11.60;70.20;;;;;;5054943;28;20033;-85
2021/03/04 03:09:56;;;;;;;2.35;0.73;;;11.60;70.30;;;;;;5057184;28;20029;-87
2021/03/04 03:12:23;;;;;;;2.53;0.50;;;11.60;70.40;;;;;;5052603;28;20025;-87
2021/03/04 03:14:49;;;;;;;13.18;1.30;;;11.60;70.40;;;;;;5051801;28;20040;-87
2021/03/04 03:17:15;;;;;;;4.25;1.20;;;11.60;70.40;;;;;;5051824;28;20036;-87
2021/03/04 03:19:41;;;;;;;3.72;0.47;;;11.60;70.40;;;;;;5045159;28;20646;-87
2021/03/04 03:22:07;;;;;;;2.58;0.73;;;11.50;70.40;;;;;;5056096;28;20044;-86
2021/03/04 03:24:33;;;;;;;1.75;1.00;;;11.50;70.50;;;;;;5053056;28;20044;-86
2021/03/04 03:26:59;;;;;;;1.88;1.02;;;11.50;70.50;;;;;;5033904;28;20041;-86
2021/03/04 03:29:25;;;;;;;1.83;0.52;;;11.50;70.50;;;;;;5056483;28;20044;-86
2021/03/04 03:31:52;;;;;;;5.30;0.55;;;11.50;70.50;;;;;;5048560;28;20029;-87
2021/03/04 03:34:18;;;;;;;1.50;0.57;;;11.50;70.60;;;;;;5037833;28;20033;-87
2021/03/04 03:36:44;;;;;;;1.58;0.85;;;11.40;70.60;;;;;;5039662;28;20049;-86
2021/03/04 03:39:10;;;;;;;1.23;0.30;;;11.40;70.80;;;;;;5053370;28;20486;-86
2021/03/04 03:41:41;;;;;;;1.25;0.55;;;11.30;70.90;;;;;;5060962;28;20049;-85
2021/03/04 03:44:08;;;;;;;1.73;0.93;;;11.30;71.00;;;;;;5037201;28;20029;-86
2021/03/04 03:46:34;;;;;;;1.30;0.52;;;11.30;71.00;;;;;;5059830;28;20377;-86
2021/03/04 03:49:04;;;;;;;2.92;0.60;;;11.20;71.00;;;;;;5034967;28;20037;-87
2021/03/04 03:51:32;;;;;;;1.48;0.52;;;11.20;70.90;;;;;;5038329;28;20025;-85
2021/03/04 03:53:59;;;;;;;1.15;0.50;;;11.20;70.90;;;;;;5052537;28;20052;-85
2021/03/04 03:56:25;;;;;;;2.33;0.68;;;11.20;71.00;;;;;;5045006;28;20049;-87
2021/03/04 03:58:51;;;;;;;2.08;1.10;;;11.20;71.00;;;;;;5054944;28;20029;-87
2021/03/04 04:01:17;;;;;;;1.17;0.80;;;11.20;71.00;;;;;;5054271;28;20041;-86
2021/03/04 04:03:43;;;;;;;0.35;0.13;;;11.20;71.00;;;;;;5040279;28;20040;-86
2021/03/04 04:06:09;;;;;;;1.70;0.63;;;11.20;71.00;;;;;;5035089;28;20052;-87
2021/03/04 04:08:36;;;;;;;1.08;0.50;;;11.20;71.00;;;;;;5057233;28;20390;-85
2021/03/04 04:11:02;;;;;;;1.55;0.88;;;11.20;71.10;;;;;;5042248;28;20757;-86
2021/03/04 04:13:28;;;;;;;6.70;0.75;;;11.20;71.10;;;;;;5056825;28;20496;-87
2021/03/04 04:15:54;;;;;;;2.17;1.10;;;11.20;71.10;;;;;;5038412;28;20036;-87
2021/03/04 04:18:20;;;;;;;3.15;0.47;;;11.20;71.20;;;;;;5052040;28;20501;-86
2021/03/04 04:20:49;;;;;;;1.05;0.52;;;11.20;71.20;;;;;;5051378;28;20036;-89
2021/03/04 04:23:16;;;;;;;2.67;1.00;;;11.20;71.20;;;;;;5037156;28;20036;-86
2021/03/04 04:25:48;;;;;;;0.95;0.55;;;11.20;71.20;;;;;;5039353;28;20041;-86
2021/03/04 04:28:14;;;;;;;2.30;0.88;;;11.20;71.20;;;;;;5058454;28;20032;-86
2021/03/04 04:30:40;;;;;;;1.45;0.70;;;11.20;71.20;;;;;;5062375;28;20056;-86
2021/03/04 04:33:06;;;;;;;1.50;0.57;;;11.20;71.20;;;;;;5064243;28;20033;-86
2021/03/04 04:35:32;;;;;;;1.67;0.80;;;11.20;71.20;;;;;;5061633;28;20365;-87
2021/03/04 04:37:58;;;;;;;5.35;0.93;;;11.20;71.20;;;;;;5053512;28;20037;-86
2021/03/04 04:40:25;;;;;;;1.90;0.50;;;11.30;71.30;;;;;;5053159;28;20366;-86
2021/03/04 04:42:51;;;;;;;1.58;0.85;;;11.30;71.20;;;;;;5055540;28;20471;-85
2021/03/04 04:45:17;;;;;;;3.53;1.27;;;11.30;71.20;;;;;;5068812;28;20045;-86
2021/03/04 04:47:43;;;;;;;1.88;0.93;;;11.30;71.20;;;;;;5042895;28;20028;-86
2021/03/04 04:50:09;;;;;;;1.02;0.57;;;11.30;71.10;;;;;;5068511;28;20024;-87
2021/03/04 04:52:36;;;;;;;1.80;0.70;;;11.40;71.20;;;;;;5059616;28;20033;-86
2021/03/04 04:55:02;;;;;;;2.72;0.82;;;11.40;71.20;;;;;;5055150;28;20033;-87
2021/03/04 04:57:28;;;;;;;3.47;0.80;;;11.40;71.10;;;;;;5052736;28;20035;-86
2021/03/04 04:59:54;;;;;;;1.33;0.35;;;11.40;71.20;;;;;;5052365;28;20036;-87
2021/03/04 05:02:20;;;;;;;3.33;0.95;;;11.40;71.20;;;;;;5025188;28;20032;-86
2021/03/04 05:04:46;;;;;;;6.35;0.68;;;11.40;71.30;;;;;;5038746;28;20025;-84
2021/03/04 05:07:12;;;;;;;4.55;1.27;;;11.40;71.20;;;;;;5055997;28;20021;-86
2021/03/04 05:09:38;;;;;;;7.18;0.90;;;11.40;71.20;;;;;;5056021;28;20024;-86
2021/03/04 05:12:05;;;;;;;1.70;0.73;;;11.40;71.20;;;;;;5048587;28;20045;-86
2021/03/04 05:14:31;;;;;;;0.95;0.40;;;11.40;71.20;;;;;;5054322;28;20048;-87
2021/03/04 05:16:57;;;;;;;0.82;0.43;;;11.40;71.30;;;;;;5055575;28;20048;-87
2021/03/04 05:19:23;;;;;;;0.70;0.40;;;11.40;71.30;;;;;;5049620;28;20036;-83
2021/03/04 05:21:49;;;;;;;1.02;0.50;;;11.40;71.30;;;;;;5054356;28;20041;-83
2021/03/04 05:24:15;;;;;;;1.92;1.02;;;11.40;71.40;;;;;;5052497;28;20021;-83
2021/03/04 05:26:42;;;;;;;2.95;0.57;;;11.40;71.50;;;;;;5054227;28;20029;-82
2021/03/04 05:29:08;;;;;;;1.90;0.60;;;11.40;71.50;;;;;;5054904;28;20037;-82
2021/03/04 05:31:34;;;;;;;0.75;0.32;;;11.30;71.50;;;;;;5058219;28;20107;-82
2021/03/04 05:34:00;;;;;;;1.35;0.50;;;11.30;71.50;;;;;;5060031;28;20033;-85
2021/03/04 05:36:26;;;;;;;2.22;0.70;;;11.30;71.60;;;;;;5052782;28;20396;-85
2021/03/04 05:38:52;;;;;;;1.17;0.68;;;11.30;71.70;;;;;;5051857;28;20029;-87
2021/03/04 05:41:21;;;;;;;2.40;0.75;;;11.20;71.60;;;;;;5066951;28;20044;-86
2021/03/04 05:43:48;;;;;;;2.30;0.70;;;11.20;71.60;;;;;;5022644;28;20040;-86
2021/03/04 05:46:14;;;;;;;2.42;0.60;;;11.20;71.70;;;;;;5053871;28;20036;-86
2021/03/04 05:48:43;;;;;;;5.75;0.63;;;11.20;71.80;;;;;;5037787;28;20032;-86
2021/03/04 05:51:12;;;;;;;1.35;0.52;;;11.10;71.70;;;;;;5050153;28;20029;-86
2021/03/04 05:53:38;;;;;;;2.63;0.52;;;11.10;71.80;;;;;;5021282;28;20048;-86
2021/03/04 05:56:05;;;;;;;0.70;0.40;;;11.10;72.00;;;;;;5036379;28;20044;-85
2021/03/04 05:58:31;;;;;;;1.75;0.90;;;11.10;71.90;;;;;;5054226;28;20036;-86
2021/03/04 06:00:57;;;;;;;0.68;0.43;;;11.10;71.90;;;;;;5053470;28;20044;-87
2021/03/04 06:03:23;;;;;;;9.52;1.40;;;11.10;71.90;;;;;;5053145;28;20028;-86
2021/03/04 06:05:49;;;;;;;3.97;0.55;;;11.10;71.90;;;;;;5033411;28;20409;-86
2021/03/04 06:08:15;;;;;;;3.10;0.55;;;11.10;71.80;;;;;;5070544;28;20041;-87
2021/03/04 06:10:41;;;;;;;2.30;0.52;;;11.10;71.80;;;;;;5055772;28;20033;-87
2021/03/04 06:13:08;;;;;;;13.98;1.10;;;11.10;71.80;;;;;;5040269;28;20025;-86
2021/03/04 06:15:34;;;;;;;1.50;0.98;;;11.10;72.70;;;;;;5057160;28;20036;-86
2021/03/04 06:18:01;;;;;;;4.25;0.70;;;11.10;72.00;;;;;;5055130;28;20029;-86
2021/03/04 06:20:40;;;;;;;1.52;0.45;;;11.10;72.10;;;;;;5038336;28;20037;-86
2021/03/04 06:23:06;;;;;;;0.32;0.10;;;11.00;72.20;;;;;;5072358;28;20036;-86
2021/03/04 06:25:33;;;;;;;1.08;0.32;;;11.00;72.20;;;;;;5040755;28;20035;-86
2021/03/04 06:27:59;;;;;;;0.50;0.17;;;11.00;72.20;;;;;;5056765;28;20087;-86
2021/03/04 06:30:25;;;;;;;1.77;0.95;;;11.00;72.30;;;;;;5055457;28;20405;-86
2021/03/04 06:32:59;;;;;;;0.82;0.57;;;11.00;72.30;;;;;;5053100;28;20041;-86
2021/03/04 06:35:32;;;;;;;1.70;0.75;;;11.00;72.30;;;;;;5057407;28;20037;-85
2021/03/04 06:37:58;;;;;;;1.65;0.60;;;10.90;72.30;;;;;;5056288;28;20358;-86
2021/03/04 06:40:32;;;;;;;0.88;0.30;;;11.00;72.20;;;;;;5057443;28;20509;-86
2021/03/04 06:42:59;;;;;;;2.72;0.75;;;11.00;72.20;;;;;;5057347;28;20378;-86
2021/03/04 06:45:35;;;;;;;1.50;0.55;;;11.00;72.20;;;;;;5055310;28;20036;-86
2021/03/04 06:48:12;;;;;;;6.20;0.77;;;11.10;72.20;;;;;;5053806;28;20021;-85
2021/03/04 06:50:39;;;;;;;0.85;0.30;;;11.10;72.20;;;;;;5052971;28;20366;-86
2021/03/04 06:53:18;;;;;;;3.90;1.20;;;11.10;72.20;;;;;;5058567;28;20029;-86
2021/03/04 06:55:48;;;;;;;2.92;0.70;;;11.10;72.20;;;;;;5040172;28;20036;-86
2021/03/04 06:58:14;;;;;;;3.40;0.82;;;11.10;72.10;;;;;;5058255;28;20029;-86
2021/03/04 07:00:40;;;;;;;2.47;0.63;;;11.20;72.20;;;;;;5055509;28;20469;-86
2021/03/04 07:03:06;;;;;;;1.27;0.40;;;11.20;72.10;;;;;;5052874;28;20040;-85
2021/03/04 07:05:32;;;;;;;1.95;0.65;;;11.20;72.00;;;;;;5057145;28;20059;-86
2021/03/04 07:07:58;;;;;;;3.25;0.88;;;11.30;72.00;;;;;;5058086;28;20037;-86
2021/03/04 07:10:25;;;;;;;5.78;1.25;;;11.30;72.00;;;;;;5057000;28;20048;-85
2021/03/04 07:12:52;;;;;;;3.03;0.20;;;11.30;71.90;;;;;;5057084;28;20028;-86
2021/03/04 07:15:19;;;;;;;2.35;0.80;;;11.30;71.90;;;;;;5054688;28;20033;-86
2021/03/04 07:17:49;;;;;;;1.65;0.98;;;11.40;72.00;;;;;;5038629;28;20037;-86
2021/03/04 07:20:20;;;;;;;1.48;0.43;;;11.40;72.00;;;;;;5068047;28;20040;-86
2021/03/04 07:22:47;;;;;;;4.40;1.00;;;11.40;71.90;;;;;;5040034;28;20051;-84
2021/03/04 07:25:14;;;;;;;0.75;0.30;;;11.40;71.90;;;;;;5036002;28;20037;-84
2021/03/04 07:27:40;;;;;;;8.52;1.05;;;11.40;71.90;;;;;;5015731;28;20041;-84
2021/03/04 07:30:08;;;;;;;1.48;0.50;;;11.30;72.00;;;;;;5068826;28;20028;-83
2021/03/04 07:32:34;;;;;;;3.95;0.77;;;11.30;72.00;;;;;;5057291;28;20088;-87
2021/03/04 07:35:01;;;;;;;5.30;0.47;;;11.30;72.00;;;;;;5056370;28;20032;-86
2021/03/04 07:37:27;;;;;;;1.60;0.38;;;11.30;72.10;;;;;;5054326;28;20378;-87
2021/03/04 07:40:00;;;;;;;3.85;0.95;;;11.30;72.10;;;;;;5079832;28;20043;-86
2021/03/04 07:42:26;;;;;;;0.82;0.25;;;11.30;72.10;;;;;;5049776;28;20053;-86
2021/03/04 07:44:52;;;;;;;3.30;0.98;;;11.30;72.20;;;;;;5052516;28;20033;-85
2021/03/04 07:47:25;;;;;;;3.30;0.60;;;11.30;72.20;;;;;;5051485;28;20421;-88
2021/03/04 07:49:51;;;;;;;1.25;0.57;;;11.20;72.30;;;;;;5063497;28;20415;-88
2021/03/04 07:52:22;;;;;;;3.72;1.15;;;11.20;72.30;;;;;;5044217;28;20020;-87
2021/03/04 07:54:49;;;;;;;2.40;0.33;;;11.20;72.30;;;;;;5030295;28;20395;-86
2021/03/04 07:57:28;;;;;;;2.00;0.77;;;11.20;72.30;;;;;;5051689;28;20057;-86
2021/03/04 08:00:03;;;;;;;1.70;0.52;;;11.20;72.20;;;;;;5049762;28;20021;-86
2021/03/04 08:02:30;;;;;;;7.25;0.90;;;11.20;72.30;;;;;;5053039;28;20406;-89
2021/03/04 08:05:15;;;;;;;4.95;0.75;;;11.20;72.20;;;;;;5050306;28;20033;-84
2021/03/04 08:07:44;;;;;;;0.77;0.45;;;11.30;72.20;;;;;;5047376;28;20031;-86
2021/03/04 08:10:18;;;;;;;1.30;0.65;;;11.40;72.10;;;;;;5050047;28;20543;-85
2021/03/04 08:13:00;;;;;;;2.35;0.90;;;11.40;71.90;;;;;;5050559;28;20035;-85
2021/03/04 08:15:39;;;;;;;0.82;0.40;;;11.40;71.80;;;;;;5042799;28;20036;-87
2021/03/04 08:18:19;;;;;;;0.35;0.20;;;11.40;71.80;;;;;;5052486;28;20037;-89
2021/03/04 08:20:46;;;;;;;2.60;0.70;;;11.40;72.00;;;;;;5029272;28;20042;-88
2021/03/04 08:23:12;;;;;;;1.50;0.45;;;11.40;72.20;;;;;;5039987;28;20029;-89
2021/03/04 08:25:38;;;;;;;2.17;0.68;;;11.30;72.20;;;;;;5057300;28;20450;-87
2021/03/04 08:28:04;;;;;;;2.05;0.45;;;11.30;72.30;;;;;;5050214;28;20032;-84
2021/03/04 08:30:35;;;;;;;0.82;0.57;;;11.30;72.40;;;;;;5051035;28;20037;-87
2021/03/04 08:33:03;;;;;;;3.97;0.85;;;11.30;72.40;;;;;;5044413;28;20489;-85
2021/03/04 08:35:29;;;;;;;3.75;0.90;;;11.20;72.40;;;;;;5066793;28;20466;-87
2021/03/04 08:37:59;;;;;;;2.22;0.75;;;11.20;72.30;;;;;;5031566;28;20049;-87
2021/03/04 08:40:25;;;;;;;0.85;0.47;;;11.20;72.40;;;;;;5049165;28;20037;-86
2021/03/04 08:42:51;;;;;;;10.98;0.65;;;11.20;72.30;;;;;;5051165;28;20493;-88
2021/03/04 08:45:28;;;;;;;2.25;0.95;;;11.20;72.30;;;;;;5047632;28;20497;-88
2021/03/04 08:47:54;;;;;;;3.83;1.23;;;11.20;72.40;;;;;;5031562;28;20029;-88
2021/03/04 08:50:30;;;;;;;2.03;0.50;;;11.30;72.40;;;;;;5050726;28;20060;-91
2021/03/04 08:52:56;;;;;;;5.15;0.50;;;11.30;72.30;;;;;;5032942;28;20037;-91
2021/03/04 08:55:22;;;;;;;2.05;0.70;;;11.40;72.30;;;;;;5039491;28;20025;-90
2021/03/04 08:57:48;;;;;;;7.30;0.90;;;11.40;72.20;;;;;;5043492;28;20044;-90
2021/03/04 09:00:14;;;;;;;6.60;1.58;;;11.40;72.10;;;;;;5043493;28;20025;-91
2021/03/04 09:02:40;;;;;;;2.67;1.00;;;11.40;72.10;;;;;;5049777;28;20393;-89
2021/03/04 09:05:07;;;;;;;12.20;1.20;;;11.40;72.10;;;;;;5052154;28;20032;-86
2021/03/04 09:07:40;;;;;;;1.15;0.82;;;11.50;72.10;;;;;;5049964;28;20044;-92
2021/03/04 09:10:07;;;;;;;1.27;0.52;;;11.50;72.10;;;;;;5027160;28;20529;-89
2021/03/04 09:12:45;;;;;;;8.00;0.68;;;11.60;71.90;;;;;;5047563;28;20024;-86
2021/03/04 09:15:16;;;;;;;1.05;0.47;;;11.70;72.00;;;;;;5037186;28;20033;-84
2021/03/04 09:17:42;;;;;;;;;;;11.60;71.90;;;;;;5050119;28;20040;-87
2021/03/04 09:20:13;;;;;;;7.28;0.35;;;11.60;71.90;;;;;;5050862;28;19915;-87
2021/03/04 09:22:40;;;;;;;1.55;0.65;;;11.60;71.90;;;;;;5049592;28;20025;-86
2021/03/04 09:25:09;;;;;;;0.90;0.10;;;11.60;72.70;;;;;;5046347;28;20038;-85
2021/03/04 09:27:37;;;;;;;0.22;0.13;;;11.60;71.90;;;;;;5046304;28;20040;-85
2021/03/04 09:30:04;;;;;;;7.95;1.13;;;11.70;72.00;;;;;;5045001;28;20469;-86
2021/03/04 09:32:31;;;;;;;7.88;1.02;;;11.70;72.00;;;;;;5049214;28;20037;-85
2021/03/04 09:34:58;;;;;;;0.68;0.38;;;11.70;72.00;;;;;;5049573;28;20041;-87
2021/03/04 09:37:25;;;;;;;2.75;0.57;;;11.70;72.00;;;;;;5032013;28;20048;-86
2021/03/04 09:39:52;;;;;;;1.08;0.82;;;11.60;71.90;;;;;;5049530;28;20025;-88
2021/03/04 09:42:30;;;;;;;0.77;0.57;;;11.60;72.00;;;;;;5048632;28;20478;-87
2021/03/04 09:44:57;;;;;;;0.60;0.35;;;11.70;72.10;;;;;;5047059;28;20033;-85
2021/03/04 09:47:26;;;;;;;2.67;0.52;;;11.70;72.00;;;;;;5049162;28;20045;-86
2021/03/04 09:49:53;;;;;;;4.97;1.20;;;11.70;72.00;;;;;;5039785;28;20032;-86
2021/03/04 09:52:23;;;;;;;1.60;0.82;;;11.70;72.00;;;;;;5039486;28;20029;-86
2021/03/04 09:54:49;;;;;;;2.30;0.50;;;11.80;72.10;;;;;;5029192;28;20038;-91
2021/03/04 09:57:18;;;;;;;1.85;0.30;;;11.80;71.90;;;;;;5049998;28;20052;-91
2021/03/04 09:59:52;;;;;;;3.88;0.88;;;11.80;71.90;;;;;;5041095;28;20390;-93
2021/03/04 10:02:18;;;;;;;2.42;0.63;;;11.90;71.90;;;;;;5015963;28;20397;-89
2021/03/04 10:04:55;;;;;;;2.03;0.43;;;11.90;71.90;;;;;;5032788;28;20032;-87
2021/03/04 10:07:25;;;;;;;1.48;0.15;;;11.90;71.80;;;;;;5032590;28;20028;-89
2021/03/04 10:09:51;;;;;;;4.85;1.02;;;11.90;71.70;;;;;;5048841;28;20473;-86
2021/03/04 10:12:17;;;;;;;1.00;0.55;;;12.00;71.70;;;;;;5032479;28;20044;-86
2021/03/04 10:14:51;;;;;;;2.20;0.75;;;12.00;71.60;;;;;;5049915;28;20025;-85
2021/03/04 10:17:17;;;;;;;2.45;1.25;;;12.00;71.50;;;;;;5048903;28;20037;-89
2021/03/04 10:19:43;;;;;;;2.20;0.90;;;12.10;71.50;;;;;;5041333;28;20037;-89
2021/03/04 10:22:10;;;;;;;2.80;0.85;;;12.20;71.40;;;;;;5049505;28;20397;-90
2021/03/04 10:24:36;;;;;;;0.65;0.40;;;12.20;71.20;;;;;;5048252;28;20021;-89
2021/03/04 10:27:03;;;;;;;2.25;0.57;;;12.30;71.10;;;;;;5033447;28;20040;-88
2021/03/04 10:29:29;;;;;;;4.28;0.68;;;12.40;71.00;;;;;;5049182;28;20040;-87
2021/03/04 10:31:56;;;;;;;3.83;1.63;;;12.50;70.90;;;;;;5032282;28;20049;-88
2021/03/04 10:34:22;;;;;;;2.15;1.00;;;12.60;71.00;;;;;;5042874;28;20040;-90
2021/03/04 10:36:48;;;;;;;1.35;0.70;;;12.60;70.80;;;;;;5021067;28;20049;-86
2021/03/04 10:39:15;;;;;;;7.32;1.00;;;12.70;70.70;;;;;;5044980;28;20041;-85
2021/03/04 10:41:42;;;;;;;1.77;0.88;;;12.70;70.60;;;;;;5050027;28;20060;-86
2021/03/04 10:44:10;;;;;;;4.22;0.70;;;12.70;70.60;;;;;;5048123;28;20359;-86
2021/03/04 10:46:36;;;;;;;5.57;0.55;;;12.80;70.60;;;;;;5031081;28;20040;-89
2021/03/04 10:49:03;;;;;;;1.25;0.47;;;13.00;70.50;;;;;;5032821;28;20072;-84
2021/03/04 10:51:30;;;;;;;0.80;0.30;;;13.20;70.00;;;;;;5049637;28;20037;-83
2021/03/04 10:53:56;;;;;;;0.85;0.40;;;13.30;69.80;;;;;;5062735;28;20037;-85
2021/03/04 10:56:22;;;;;;;2.25;0.30;;;13.40;69.70;;;;;;5051319;28;20036;-85
2021/03/04 10:58:48;;;;;;;0.73;0.38;;;13.40;69.60;;;;;;5050303;28;20397;-85
2021/03/04 11:01:14;;;;;;;2.55;0.47;;;13.50;69.50;;;;;;5034736;28;20151;-85
2021/03/04 11:03:40;;;;;;;2.40;0.50;;;13.60;69.40;;;;;;5052571;28;20035;-84
2021/03/04 11:06:07;;;;;;;4.95;1.23;;;13.60;69.20;;;;;;5052945;28;20025;-87
2021/03/04 11:08:33;;;;;;;1.92;0.73;;;13.60;69.30;;;;;;5051990;28;20044;-83
2021/03/04 11:10:59;;;;;;;5.30;1.42;;;13.60;69.40;;;;;;5040109;28;20025;-86
2021/03/04 11:13:25;;;;;;;2.28;0.60;;;13.70;69.50;;;;;;5043054;28;20042;-93
2021/03/04 11:15:51;;;;;;;4.47;1.00;;;13.80;69.40;;;;;;5045574;28;20402;-91
2021/03/04 11:18:18;;;;;;;1.80;0.88;;;13.90;69.20;;;;;;5050384;28;20040;-91
2021/03/04 11:20:44;;;;;;;1.02;0.50;;;14.00;69.10;;;;;;5051040;28;20040;-92
2021/03/04 11:23:10;;;;;;;1.73;0.63;;;14.10;69.00;;;;;;5056797;28;20421;-89
2021/03/04 11:25:36;;;;;;;8.05;0.85;;;14.30;68.80;;;;;;5043057;28;20036;-93
2021/03/04 11:28:04;;;;;;;1.50;0.70;;;14.70;68.20;;;;;;5048933;28;20036;-92
2021/03/04 11:30:30;;;;;;;2.17;0.88;;;14.90;67.70;;;;;;5033473;28;20033;-94
2021/03/04 11:32:57;;;;;;;2.28;0.70;;;15.00;67.30;;;;;;5050634;28;20040;-92
2021/03/04 11:35:27;;;;;;;6.95;1.05;;;15.00;67.30;;;;;;5053194;28;20056;-89
2021/03/04 11:37:54;;;;;;;0.65;0.30;;;15.10;67.40;;;;;;5050009;28;20033;-88
2021/03/04 11:40:20;;;;;;;4.03;0.70;;;15.00;67.30;;;;;;5038285;28;20041;-90
2021/03/04 11:42:47;;;;;;;2.33;0.60;;;14.90;67.60;;;;;;5051449;28;20497;-87
2021/03/04 11:45:13;;;;;;;1.20;0.30;;;14.70;67.80;;;;;;5041985;28;20045;-88
2021/03/04 11:47:39;;;;;;;0.40;0.10;;;14.60;68.10;;;;;;5031696;28;20418;-91
2021/03/04 11:50:06;;;;;;;4.00;0.30;;;14.40;68.20;;;;;;5050970;28;20397;-89
2021/03/04 11:52:32;;;;;;;2.67;0.68;;;14.20;68.50;;;;;;5047342;28;20458;-88
2021/03/04 11:54:58;;;;;;;0.90;0.22;;;14.10;68.80;;;;;;5050594;28;20385;-89
2021/03/04 11:57:24;;;;;;;0.68;0.30;;;14.00;69.00;;;;;;5050567;28;20044;-86
2021/03/04 11:59:50;;;;;;;3.35;0.70;;;13.90;69.00;;;;;;5051200;28;20048;-89
2021/03/04 12:02:16;;;;;;;0.65;0.30;;;13.80;69.10;;;;;;5031089;28;20032;-86
2021/03/04 12:04:43;;;;;;;0.73;0.35;;;13.70;69.30;;;;;;5050563;28;20045;-86
2021/03/04 12:07:09;;;;;;;5.53;0.70;;;13.50;69.50;;;;;;5043606;28;20040;-86
2021/03/04 12:09:35;;;;;;;0.30;0.00;;;13.30;69.70;;;;;;5055610;28;20025;-85
2021/03/04 12:12:01;;;;;;;2.60;0.73;;;13.20;69.90;;;;;;5034566;28;20520;-85
2021/03/04 12:14:27;;;;;;;1.88;0.52;;;13.10;70.10;;;;;;5052578;28;20021;-85
2021/03/04 12:16:53;;;;;;;3.13;0.75;;;13.00;70.20;;;;;;5050616;28;20045;-85
2021/03/04 12:19:19;;;;;;;2.75;0.50;;;13.00;70.30;;;;;;5050468;28;20040;-85
2021/03/04 12:21:45;;;;;;;2.33;0.38;;;12.90;70.30;;;;;;5032090;28;20036;-85
2021/03/04 12:24:12;;;;;;;2.17;0.47;;;12.90;70.30;;;;;;5051316;28;20032;-86
2021/03/04 12:26:38;;;;;;;4.18;0.82;;;12.90;70.20;;;;;;5036707;28;20036;-86
2021/03/04 12:29:04;;;;;;;1.55;0.40;;;12.90;70.30;;;;;;5052189;28;20539;-85
2021/03/04 12:31:30;;;;;;;2.97;0.75;;;12.90;70.30;;;;;;5049525;28;20406;-86
2021/03/04 12:33:56;;;;;;;1.45;0.50;;;12.90;70.40;;;;;;5053580;28;20036;-85
2021/03/04 12:36:22;;;;;;;6.45;1.02;;;12.90;70.40;;;;;;5050141;28;20032;-86
2021/03/04 12:38:48;;;;;;;5.22;0.57;;;12.90;70.40;;;;;;5049785;28;20044;-86
2021/03/04 12:41:14;;;;;;;2.58;0.77;;;12.80;70.30;;;;;;5052208;28;20045;-86
2021/03/04 12:43:40;;;;;;;1.77;0.60;;;12.80;70.30;;;;;;5032472;28;20032;-85
2021/03/04 12:46:06;;;;;;;2.00;0.90;;;13.00;70.20;;;;;;5050098;28;20037;-86
2021/03/04 12:48:33;;;;;;;0.55;0.20;;;13.30;69.80;;;;;;5052367;28;20036;-85
2021/03/04 12:50:59;;;;;;;0.52;0.20;;;13.60;69.20;;;;;;5050637;28;20037;-85